createdAt,value
2022-10-24T00:01:39.737Z,100358.47
2022-10-24T00:04:38.141Z,100357.25
2022-10-24T00:07:35.090Z,100353.13
2022-10-24T00:10:32.226Z,100353.91
2022-10-24T00:13:29.023Z,100362.84
2022-10-24T00:16:27.126Z,100363.31
2022-10-24T00:19:23.811Z,100361.28
2022-10-24T00:22:21.300Z,100373.09
2022-10-24T00:25:18.260Z,100366.16
2022-10-24T00:28:15.037Z,100364.97
2022-10-24T00:31:17.091Z,100361.72
2022-10-24T00:34:14.166Z,100364.19
2022-10-24T00:37:11.131Z,100354.00
2022-10-24T00:40:08.842Z,100350.72
2022-10-24T00:43:17.090Z,100345.03
2022-10-24T00:46:14.138Z,100339.34
2022-10-24T00:49:13.516Z,100333.63
2022-10-24T00:52:10.670Z,100326.75
2022-10-24T00:55:08.343Z,100316.56
2022-10-24T00:58:05.473Z,100314.84
2022-10-24T01:01:03.364Z,100316.06
2022-10-24T01:04:01.019Z,100313.59
2022-10-24T01:07:06.850Z,100298.94
2022-10-24T01:10:33.278Z,100305.06
2022-10-24T01:13:57.962Z,100307.53
2022-10-24T01:17:04.128Z,100300.19
2022-10-24T01:20:23.867Z,100299.34
2022-10-24T01:23:27.673Z,100288.00
2022-10-24T01:26:31.011Z,100291.66
2022-10-24T01:30:03.277Z,100299.38
2022-10-24T01:33:15.972Z,100288.44
2022-10-24T01:36:16.279Z,100280.69
2022-10-24T01:39:15.337Z,100277.84
2022-10-24T01:42:11.989Z,100265.69
2022-10-24T01:45:10.202Z,100264.50
2022-10-24T01:48:08.303Z,100261.66
2022-10-24T01:51:04.854Z,100258.81
2022-10-24T01:54:02.021Z,100252.28
2022-10-24T01:56:59.050Z,100246.56
2022-10-24T01:59:56.197Z,100240.84
2022-10-24T02:03:34.468Z,100239.25
2022-10-24T02:06:34.667Z,100231.50
2022-10-24T02:09:31.814Z,100239.69
2022-10-24T02:12:29.369Z,100228.28
2022-10-24T02:15:28.993Z,100219.72
2022-10-24T02:18:26.946Z,100210.41
2022-10-24T02:21:35.841Z,100208.38
2022-10-24T02:25:02.242Z,100213.25
2022-10-24T02:28:22.921Z,100210.41
2022-10-24T02:31:22.099Z,100201.88
2022-10-24T02:34:18.751Z,100199.44
2022-10-24T02:37:16.238Z,100196.16
2022-10-24T02:40:13.234Z,100199.81
2022-10-24T02:43:10.078Z,100183.56
2022-10-24T02:46:07.107Z,100187.22
2022-10-24T02:49:04.123Z,100179.09
2022-10-24T02:52:01.070Z,100179.47
2022-10-24T02:54:58.212Z,100172.16
2022-10-24T02:57:55.241Z,100177.41
2022-10-24T03:00:52.096Z,100172.94
2022-10-24T03:03:49.201Z,100174.97
2022-10-24T03:06:46.265Z,100173.34
2022-10-24T03:09:43.105Z,100169.28
2022-10-24T03:12:40.181Z,100174.97
2022-10-24T03:15:37.135Z,100171.31
2022-10-24T03:18:33.861Z,100177.41
2022-10-24T03:21:31.289Z,100173.41
2022-10-24T03:24:43.311Z,100182.31
2022-10-24T03:27:42.067Z,100180.69
2022-10-24T03:30:38.865Z,100176.19
2022-10-24T03:33:36.171Z,100177.44
2022-10-24T03:36:33.060Z,100175.81
2022-10-24T03:39:29.977Z,100175.75
2022-10-24T03:42:26.927Z,100177.00
2022-10-24T03:45:23.927Z,100166.03
2022-10-24T03:48:21.031Z,100174.56
2022-10-24T03:51:18.342Z,100172.13
2022-10-24T03:54:15.406Z,100170.47
2022-10-24T03:57:12.474Z,100178.19
2022-10-24T04:00:09.966Z,100174.16
2022-10-24T04:03:07.468Z,100181.47
2022-10-24T04:06:04.493Z,100177.75
2022-10-24T04:09:00.873Z,100182.25
2022-10-24T04:11:58.362Z,100186.69
2022-10-24T04:14:55.008Z,100187.94
2022-10-24T04:17:51.918Z,100173.31
2022-10-24T04:20:48.929Z,100190.41
2022-10-24T04:23:46.575Z,100187.16
2022-10-24T04:26:44.273Z,100190.44
2022-10-24T04:29:41.056Z,100190.84
2022-10-24T04:32:38.238Z,100189.66
2022-10-24T04:35:35.147Z,100184.38
2022-10-24T04:38:33.463Z,100185.56
2022-10-24T04:41:31.126Z,100178.69
2022-10-24T04:44:28.351Z,100184.78
2022-10-24T04:47:25.039Z,100195.34
2022-10-24T04:50:22.047Z,100186.41
2022-10-24T04:53:18.831Z,100195.34
2022-10-24T04:56:16.129Z,100196.53
2022-10-24T04:59:13.219Z,100194.91
2022-10-24T05:02:10.445Z,100196.53
2022-10-24T05:05:07.344Z,100190.84
2022-10-24T05:08:04.031Z,100193.66
2022-10-24T05:11:01.365Z,100194.47
2022-10-24T05:13:58.281Z,100194.50
2022-10-24T05:16:55.040Z,100190.44
2022-10-24T05:19:51.974Z,100193.69
2022-10-24T05:22:49.264Z,100191.69
2022-10-24T05:25:46.471Z,100185.19
2022-10-24T05:28:43.199Z,100191.69
2022-10-24T05:31:40.073Z,100192.88
2022-10-24T05:34:37.237Z,100183.13
2022-10-24T05:37:34.302Z,100178.25
2022-10-24T05:40:30.879Z,100184.38
2022-10-24T05:43:28.268Z,100173.75
2022-10-24T05:46:25.226Z,100177.03
2022-10-24T05:49:22.099Z,100186.81
2022-10-24T05:52:19.128Z,100177.44
2022-10-24T05:55:18.118Z,100182.31
2022-10-24T05:58:20.943Z,100171.75
2022-10-24T06:01:18.273Z,100176.63
2022-10-24T06:04:15.323Z,100178.25
2022-10-24T06:07:12.242Z,100178.69
2022-10-24T06:10:09.327Z,100172.53
2022-10-24T06:13:06.477Z,100172.53
2022-10-24T06:16:05.822Z,100168.06
2022-10-24T06:19:03.408Z,100180.69
2022-10-24T06:22:00.289Z,100182.69
2022-10-24T06:24:57.381Z,100180.25
2022-10-24T06:27:54.089Z,100194.91
2022-10-24T06:30:51.695Z,100191.22
2022-10-24T06:33:49.505Z,100191.22
2022-10-24T06:36:46.127Z,100196.91
2022-10-24T06:39:42.932Z,100200.16
2022-10-24T06:42:40.413Z,100208.31
2022-10-24T06:45:40.382Z,100217.66
2022-10-24T06:48:37.050Z,100218.88
2022-10-24T06:51:34.419Z,100216.47
2022-10-24T06:54:32.141Z,100227.91
2022-10-24T06:57:29.154Z,100236.84
2022-10-24T07:03:23.282Z,100238.06
2022-10-24T07:06:25.185Z,100241.28
2022-10-24T07:09:22.389Z,100230.72
2022-10-24T07:15:17.185Z,100228.28
2022-10-24T07:18:15.889Z,100235.59
2022-10-24T07:21:18.610Z,100233.56
2022-10-24T07:24:15.209Z,100227.84
2022-10-24T07:27:12.365Z,100223.38
2022-10-24T07:30:13.249Z,100246.16
2022-10-24T07:33:10.486Z,100240.03
2022-10-24T07:36:08.030Z,100230.28
2022-10-24T07:39:05.262Z,100237.59
2022-10-24T07:42:02.042Z,100235.53
2022-10-24T07:44:59.467Z,100242.88
2022-10-24T07:47:56.504Z,100243.28
2022-10-24T07:50:54.381Z,100248.16
2022-10-24T07:53:51.565Z,100232.69
2022-10-24T07:56:48.419Z,100233.47
2022-10-24T07:59:45.284Z,100233.47
2022-10-24T08:02:42.390Z,100235.84
2022-10-24T08:05:40.603Z,100234.97
2022-10-24T08:08:37.973Z,100247.56
2022-10-24T08:11:35.475Z,100238.56
2022-10-24T08:14:32.570Z,100246.94
2022-10-24T08:17:29.128Z,100244.03
2022-10-24T08:20:26.784Z,100238.34
2022-10-24T08:23:25.539Z,100246.06
2022-10-24T08:26:24.467Z,100241.03
2022-10-24T08:29:23.052Z,100231.25
2022-10-24T08:32:20.307Z,100240.47
2022-10-24T08:35:18.237Z,100230.38
2022-10-24T08:38:15.263Z,100238.81
2022-10-24T08:41:27.585Z,100236.88
2022-10-24T08:44:35.891Z,100245.28
2022-10-24T08:48:07.128Z,100232.56
2022-10-24T08:51:38.516Z,100242.31
2022-10-24T08:54:40.039Z,100248.06
2022-10-24T08:57:37.160Z,100247.50
2022-10-24T09:00:39.259Z,100242.47
2022-10-24T09:03:55.556Z,100246.91
2022-10-24T09:06:54.603Z,100245.50
2022-10-24T09:09:52.912Z,100237.31
2022-10-24T09:12:50.274Z,100245.09
2022-10-24T09:15:47.132Z,100249.88
2022-10-24T09:18:44.480Z,100230.16
2022-10-24T09:21:42.049Z,100243.94
2022-10-24T09:25:07.561Z,100259.03
2022-10-24T09:28:05.282Z,100247.75
2022-10-24T09:31:15.631Z,100260.03
2022-10-24T09:34:12.394Z,100271.13
2022-10-24T09:37:32.493Z,100262.09
2022-10-24T09:40:33.968Z,100272.59
2022-10-24T09:43:43.709Z,100269.38
2022-10-24T09:46:48.050Z,100267.94
2022-10-24T09:49:45.554Z,100268.31
2022-10-24T09:52:42.473Z,100276.69
2022-10-24T09:55:44.579Z,100283.19
2022-10-24T09:58:41.481Z,100286.31
2022-10-24T10:01:38.278Z,100278.31
2022-10-24T10:04:35.565Z,100277.66
2022-10-24T10:07:33.390Z,100284.94
2022-10-24T10:10:32.816Z,100272.34
2022-10-24T10:13:29.597Z,100277.84
2022-10-24T10:16:36.914Z,100289.84
2022-10-24T10:19:37.783Z,100287.53
2022-10-24T10:22:34.801Z,100281.50
2022-10-24T10:25:32.662Z,100277.84
2022-10-24T10:28:29.535Z,100281.97
2022-10-24T10:31:43.659Z,100293.38
2022-10-24T10:34:41.283Z,100288.28
2022-10-24T10:37:45.116Z,100296.72
2022-10-24T10:40:50.294Z,100292.16
2022-10-24T10:43:47.222Z,100295.41
2022-10-24T10:46:47.917Z,100290.06
2022-10-24T10:49:45.576Z,100304.22
2022-10-24T10:52:49.013Z,100305.19
2022-10-24T10:55:52.559Z,100302.81
2022-10-24T10:59:24.707Z,100306.72
2022-10-24T11:02:53.143Z,100298.56
2022-10-24T11:06:17.356Z,100298.53
2022-10-24T11:09:39.765Z,100292.22
2022-10-24T11:12:40.879Z,100307.19
2022-10-24T11:15:41.047Z,100300.25
2022-10-24T11:18:40.574Z,100300.34
2022-10-24T11:21:37.267Z,100312.16
2022-10-24T11:24:41.699Z,100325.69
2022-10-24T11:27:44.357Z,100323.19
2022-10-24T11:31:12.285Z,100330.53
2022-10-24T11:34:14.127Z,100337.13
2022-10-24T11:37:34.524Z,100335.94
2022-10-24T11:40:31.952Z,100328.94
2022-10-24T11:43:37.866Z,100326.25
2022-10-24T11:46:41.225Z,100331.94
2022-10-24T11:49:40.922Z,100344.19
2022-10-24T11:52:52.675Z,100341.88
2022-10-24T11:56:16.755Z,100349.16
2022-10-24T11:59:16.617Z,100353.69
2022-10-24T12:02:52.717Z,100360.94
2022-10-24T12:06:20.624Z,100357.19
2022-10-24T12:09:30.847Z,100354.44
2022-10-24T12:12:35.837Z,100363.03
2022-10-24T12:16:05.562Z,100364.94
2022-10-24T12:19:04.909Z,100363.84
2022-10-24T12:22:01.949Z,100372.69
2022-10-24T12:25:30.050Z,100373.56
2022-10-24T12:28:27.386Z,100385.31
2022-10-24T12:31:32.954Z,100382.81
2022-10-24T12:34:31.439Z,100385.31
2022-10-24T12:37:35.126Z,100384.00
2022-10-24T12:40:55.705Z,100373.88
2022-10-24T12:43:53.528Z,100371.44
2022-10-24T12:46:50.517Z,100386.91
2022-10-24T12:49:51.830Z,100386.09
2022-10-24T12:53:00.787Z,100380.41
2022-10-24T12:56:00.438Z,100378.34
2022-10-24T12:58:59.079Z,100387.41
2022-10-24T13:02:12.589Z,100389.72
2022-10-24T13:05:34.626Z,100400.72
2022-10-24T13:09:01.903Z,100393.84
2022-10-24T13:12:01.608Z,100393.91
2022-10-24T13:15:19.919Z,100387.78
2022-10-24T13:18:25.512Z,100396.75
2022-10-24T13:21:51.253Z,100393.97
2022-10-24T13:24:48.238Z,100392.91
2022-10-24T13:27:45.959Z,100408.44
2022-10-24T13:30:44.767Z,100408.84
2022-10-24T13:33:45.196Z,100426.81
2022-10-24T13:36:43.294Z,100423.59
2022-10-24T13:39:45.500Z,100419.59
2022-10-24T13:42:49.720Z,100421.63
2022-10-24T13:45:53.711Z,100423.25
2022-10-24T13:48:50.709Z,100440.34
2022-10-24T13:51:49.937Z,100439.13
2022-10-24T13:54:48.250Z,100440.75
2022-10-24T13:58:11.777Z,100452.53
2022-10-24T14:01:25.105Z,100446.91
2022-10-24T14:04:22.434Z,100457.16
2022-10-24T14:07:21.560Z,100447.34
2022-10-24T14:10:19.825Z,100450.97
2022-10-24T14:13:19.947Z,100456.69
2022-10-24T14:16:16.806Z,100455.91
2022-10-24T14:19:27.101Z,100449.38
2022-10-24T14:22:36.871Z,100470.97
2022-10-24T14:25:37.555Z,100477.91
2022-10-24T14:28:36.993Z,100468.50
2022-10-24T14:31:37.580Z,100488.47
2022-10-24T14:34:36.449Z,100480.75
2022-10-24T14:37:35.852Z,100468.94
2022-10-24T14:40:32.784Z,100466.09
2022-10-24T14:43:29.926Z,100486.06
2022-10-24T14:46:37.875Z,100486.06
2022-10-24T14:49:37.916Z,100484.44
2022-10-24T14:52:38.136Z,100481.16
2022-10-24T14:55:35.826Z,100484.84
2022-10-24T14:58:33.552Z,100495.03
2022-10-24T15:01:30.830Z,100495.44
2022-10-24T15:04:30.046Z,100499.94
2022-10-24T15:07:30.137Z,100499.09
2022-10-24T15:10:38.875Z,100491.75
2022-10-24T15:13:48.019Z,100491.34
2022-10-24T15:16:52.683Z,100496.69
2022-10-24T15:19:49.595Z,100496.25
2022-10-24T15:22:48.384Z,100500.72
2022-10-24T15:25:45.898Z,100509.72
2022-10-24T15:28:43.178Z,100516.22
2022-10-24T15:31:44.698Z,100515.81
2022-10-24T15:34:41.901Z,100510.13
2022-10-24T15:37:38.727Z,100511.72
2022-10-24T15:40:35.836Z,100509.72
2022-10-24T15:43:32.869Z,100519.50
2022-10-24T15:46:30.424Z,100515.81
2022-10-24T15:49:29.123Z,100530.88
2022-10-24T15:52:26.543Z,100522.75
2022-10-24T15:55:27.949Z,100528.44
2022-10-24T15:58:24.850Z,100514.19
2022-10-24T16:01:31.114Z,100515.41
2022-10-24T16:04:29.091Z,100521.09
2022-10-24T16:07:26.680Z,100521.09
2022-10-24T16:10:23.669Z,100523.56
2022-10-24T16:13:21.493Z,100523.53
2022-10-24T16:16:18.598Z,100523.94
2022-10-24T16:19:15.560Z,100534.16
2022-10-24T16:22:14.320Z,100530.91
2022-10-24T16:25:17.689Z,100539.06
2022-10-24T16:28:15.612Z,100544.78
2022-10-24T16:31:13.191Z,100547.63
2022-10-24T16:34:11.259Z,100547.63
2022-10-24T16:37:08.611Z,100552.91
2022-10-24T16:40:05.847Z,100550.06
2022-10-24T16:43:03.188Z,100554.94
2022-10-24T16:46:01.821Z,100558.63
2022-10-24T16:48:58.988Z,100551.66
2022-10-24T16:51:55.944Z,100555.25
2022-10-24T16:54:53.494Z,100564.63
2022-10-24T16:57:50.733Z,100572.38
2022-10-24T17:00:47.825Z,100570.28
2022-10-24T17:03:45.115Z,100564.19
2022-10-24T17:06:41.650Z,100569.91
2022-10-24T17:09:38.835Z,100566.28
2022-10-24T17:12:36.040Z,100562.97
2022-10-24T17:15:32.868Z,100570.75
2022-10-24T17:18:29.995Z,100579.81
2022-10-24T17:21:27.910Z,100570.00
2022-10-24T17:24:28.095Z,100563.50
2022-10-24T17:27:25.009Z,100563.88
2022-10-24T17:30:24.327Z,100569.06
2022-10-24T17:33:22.149Z,100569.06
2022-10-24T17:36:21.378Z,100576.41
2022-10-24T17:42:26.864Z,100578.06
2022-10-24T17:45:24.930Z,100591.50
2022-10-24T17:48:22.194Z,100590.72
2022-10-24T17:51:21.261Z,100589.41
2022-10-24T17:54:18.800Z,100600.44
2022-10-24T17:57:16.050Z,100596.31
2022-10-24T18:00:13.309Z,100615.88
2022-10-24T18:03:10.536Z,100622.06
2022-10-24T18:06:08.446Z,100630.63
2022-10-24T18:09:06.152Z,100633.88
2022-10-24T18:12:03.815Z,100624.06
2022-10-24T18:15:00.537Z,100635.91
2022-10-24T18:17:57.860Z,100639.59
2022-10-24T18:21:05.450Z,100630.50
2022-10-24T18:24:05.955Z,100621.72
2022-10-24T18:27:02.925Z,100632.38
2022-10-24T18:29:59.784Z,100631.91
2022-10-24T18:32:57.275Z,100640.50
2022-10-24T18:35:54.971Z,100645.75
2022-10-24T18:38:54.032Z,100639.69
2022-10-24T18:42:05.431Z,100644.41
2022-10-24T18:45:04.218Z,100647.88
2022-10-24T18:48:02.247Z,100656.44
2022-10-24T18:50:59.979Z,100655.22
2022-10-24T18:53:56.866Z,100663.34
2022-10-24T18:56:54.037Z,100662.63
2022-10-24T18:59:51.130Z,100653.88
2022-10-24T19:03:06.437Z,100652.25
2022-10-24T19:06:28.059Z,100640.53
2022-10-24T19:09:25.408Z,100657.53
2022-10-24T19:12:22.763Z,100661.78
2022-10-24T19:15:19.873Z,100670.75
2022-10-24T19:18:17.308Z,100666.28
2022-10-24T19:21:14.818Z,100667.09
2022-10-24T19:24:11.635Z,100655.59
2022-10-24T19:27:09.439Z,100666.91
2022-10-24T19:30:07.252Z,100657.41
2022-10-24T19:33:04.028Z,100671.03
2022-10-24T19:36:04.782Z,100672.69
2022-10-24T19:39:02.051Z,100666.97
2022-10-24T19:41:59.070Z,100676.38
2022-10-24T19:44:56.604Z,100679.75
2022-10-24T19:47:55.280Z,100690.41
2022-10-24T19:50:52.729Z,100681.41
2022-10-24T19:53:50.974Z,100689.56
2022-10-24T19:56:49.438Z,100686.75
2022-10-24T19:59:46.909Z,100687.94
2022-10-24T20:02:43.934Z,100684.69
2022-10-24T20:05:42.393Z,100682.03
2022-10-24T20:08:39.931Z,100675.09
2022-10-24T20:11:37.136Z,100679.00
2022-10-24T20:14:34.101Z,100678.03
2022-10-24T20:17:30.820Z,100683.84
2022-10-24T20:20:28.031Z,100679.06
2022-10-24T20:23:24.945Z,100673.00
2022-10-24T20:26:23.481Z,100680.31
2022-10-24T20:29:20.928Z,100670.59
2022-10-24T20:32:17.778Z,100683.00
2022-10-24T20:35:15.166Z,100685.50
2022-10-24T20:38:11.860Z,100683.03
2022-10-24T20:41:09.188Z,100689.88
2022-10-24T20:44:07.131Z,100699.78
2022-10-24T20:47:04.900Z,100684.09
2022-10-24T20:50:01.841Z,100693.72
2022-10-24T20:52:58.894Z,100701.69
2022-10-24T20:55:55.942Z,100694.19
2022-10-24T20:58:53.899Z,100702.94
2022-10-24T21:01:50.775Z,100694.72
2022-10-24T21:04:47.946Z,100709.19
2022-10-24T21:07:48.710Z,100704.72
2022-10-24T21:10:46.133Z,100699.44
2022-10-24T21:13:43.767Z,100715.53
2022-10-24T21:16:40.949Z,100713.41
2022-10-24T21:19:38.264Z,100715.31
2022-10-24T21:22:35.211Z,100720.06
2022-10-24T21:25:31.970Z,100725.69
2022-10-24T21:28:29.203Z,100725.75
2022-10-24T21:31:25.962Z,100736.66
2022-10-24T21:34:22.695Z,100728.75
2022-10-24T21:37:20.295Z,100727.66
2022-10-24T21:40:18.237Z,100730.13
2022-10-24T21:43:15.034Z,100724.72
2022-10-24T21:46:13.758Z,100731.53
2022-10-24T21:49:10.930Z,100746.88
2022-10-24T21:52:07.913Z,100754.13
2022-10-24T21:55:05.046Z,100756.97
2022-10-24T21:58:02.113Z,100755.63
2022-10-24T22:00:59.152Z,100750.28
2022-10-24T22:03:56.347Z,100748.34
2022-10-24T22:06:53.029Z,100753.97
2022-10-24T22:09:50.283Z,100757.97
2022-10-24T22:12:46.900Z,100756.19
2022-10-24T22:18:46.263Z,100759.97
2022-10-24T22:21:47.717Z,100767.72
2022-10-24T22:24:45.333Z,100761.81
2022-10-24T22:27:42.135Z,100761.38
2022-10-24T22:30:39.779Z,100749.22
2022-10-24T22:33:38.297Z,100756.28
2022-10-24T22:37:06.118Z,100760.88
2022-10-24T22:40:03.623Z,100761.00
2022-10-24T22:43:01.246Z,100768.06
2022-10-24T22:46:05.278Z,100777.25
2022-10-24T22:49:19.106Z,100772.34
2022-10-24T22:52:16.210Z,100773.81
2022-10-24T22:55:34.014Z,100765.63
2022-10-24T22:58:31.283Z,100767.78
2022-10-24T23:01:54.167Z,100775.56
2022-10-24T23:04:53.952Z,100769.31
2022-10-24T23:08:07.396Z,100781.00
2022-10-24T23:11:04.700Z,100787.88
2022-10-24T23:14:02.469Z,100792.97
2022-10-24T23:17:00.475Z,100797.56
2022-10-24T23:19:58.523Z,100797.38
2022-10-24T23:23:08.917Z,100791.13
2022-10-24T23:26:29.638Z,100790.66
2022-10-24T23:29:31.045Z,100795.50
2022-10-24T23:32:28.086Z,100802.66
2022-10-24T23:35:25.298Z,100802.63
2022-10-24T23:38:22.174Z,100808.25
2022-10-24T23:41:19.368Z,100809.59
2022-10-24T23:44:16.267Z,100813.25
2022-10-24T23:47:20.890Z,100819.63
2022-10-24T23:50:36.391Z,100828.16
2022-10-24T23:53:48.969Z,100824.41
2022-10-24T23:56:46.454Z,100824.63
2022-10-24T23:59:43.287Z,100827.97
